To NAV CANADA Home Page Login to a new session Search on AWWS site Disclaimer Vers la page française équivalente Tips FAQ What's new on the site To the Forecasts and Observations / NOTAM section To "File a Flight Plan" website Publications and other links Update of the User's profile FIC Telephone Numbers My Weather Data Folder Route Weather Data Regional Weather Data Local Weather Data To the Forecasts and Observations / NOTAM section
Request Generated 04/22/2019 at 12:04:05 UTC . Weather information available at that time is displayed.

METAR/TAF

If you find any discrepancies between the coded METAR/TAF and the plain language METAR/TAF please use the coded METAR/TAF. LWIS bulletins are not decoded in plain language.

LONDON/ON    

METAR CYXU 221200Z 00000KT 10SM BKN130 06/06 A3023 RMK AC7 SLP244=
METAR
LOCATION
CYXU - LONDON/ON
DATE - TIME
22 APRIL 2019 - 1200 UTC
WIND
CALM
VISIBILITY
10 STAT.  MILES
RUNWAY VISUAL RANGE
WEATHER
CLOUDINESS
BROKEN CLOUDS (5/8 - 7/8) 13000  FT
TEMP / DEWPOINT
6 C / 6 C
ALTIMETER
30.23 IN HG
RECENT WEATHER
WIND SHEAR

METAR CYXU 221100Z 08004KT 8SM BKN130 05/05 A3021 RMK AC7 SLP237=
METAR
LOCATION
CYXU - LONDON/ON
DATE - TIME
22 APRIL 2019 - 1100 UTC
WIND
80 TRUE @ 4  KNOTS
VISIBILITY
8 STAT.  MILES
RUNWAY VISUAL RANGE
WEATHER
CLOUDINESS
BROKEN CLOUDS (5/8 - 7/8) 13000  FT
TEMP / DEWPOINT
5 C / 5 C
ALTIMETER
30.21 IN HG
RECENT WEATHER
WIND SHEAR

METAR CYXU 221000Z 08003KT 020V080 8SM BKN140 BKN260 04/04 A3020 RMK AC7CI1 CI SLP234=
METAR
LOCATION
CYXU - LONDON/ON
DATE - TIME
22 APRIL 2019 - 1000 UTC
WIND
80 TRUE @ 3  KNOTS
VARIATION
20 <-> 80  DEG
VISIBILITY
8 STAT.  MILES
RUNWAY VISUAL RANGE
WEATHER
CLOUDINESS
BROKEN CLOUDS (5/8 - 7/8) 14000  FT
BROKEN CLOUDS (5/8 - 7/8) 26000  FT
TEMP / DEWPOINT
4 C / 4 C
ALTIMETER
30.20 IN HG
RECENT WEATHER
WIND SHEAR

TAF CYXU 221139Z 2212/2312 VRB03KT P6SM BKN120 BECMG 2213/2215 16007KT FM221500 16007KT P6SM SCT120 FM221900 17008KT P6SM FEW140 BECMG 2300/2302 13007KT FM230900 14010KT P6SM BKN120 RMK NXT FCST BY 221800Z=
TAF
LOCATION

CYXU - LONDON/ON
VALIDITY [UTC]
22 APR - 1139 to
23 APR - 1200
 
TIMES
[UTC]
WIND
[DEGREES TRUE]
VISIBILITY
[STAT. MILES]
WEATHER
CLOUDINESS
[FEET AGL]
 
22 APR - 1200 to
22 APR - 1500
VARIABLE @ 3 KNOTS
6+
NIL
12000 BROKEN
BECOMING
22 APR - 1300 to
22 APR - 1500
160 @ 7 KNOTS
 
 
 
 
22 APR - 1500 to
22 APR - 1900
160 @ 7 KNOTS
6+
NIL
12000 SCATTERED
 
22 APR - 1900 to
23 APR - 0900
170 @ 8 KNOTS
6+
NIL
14000 FEW
BECOMING
23 APR - 0000 to
23 APR - 0200
130 @ 7 KNOTS
 
 
 
 
23 APR - 0900 to
23 APR - 1200
140 @ 10 KNOTS
6+
NIL
12000 BROKEN
REMARKS
THE NEXT FORECAST WILL BE ISSUED BY 1800 UTC ON DAY 22


Your time UTC time
Weather data provided by Environment Canada and NAV CANADA